createdAt,value
2018-05-04T00:00:52.638Z,0
2018-05-04T00:01:52.392Z,0
2018-05-04T00:02:52.417Z,0
2018-05-04T00:03:52.145Z,0
2018-05-04T00:04:52.734Z,0
2018-05-04T00:05:52.818Z,0
2018-05-04T00:06:52.759Z,0
2018-05-04T00:07:52.515Z,0
2018-05-04T00:08:52.529Z,0
2018-05-04T00:09:52.546Z,0
2018-05-04T00:10:52.877Z,0
2018-05-04T00:11:52.884Z,0
2018-05-04T00:12:52.883Z,0
2018-05-04T00:13:52.936Z,0
2018-05-04T00:14:52.654Z,0
2018-05-04T00:15:52.661Z,0
2018-05-04T00:16:52.688Z,0
2018-05-04T00:17:52.991Z,0
2018-05-04T00:18:53.034Z,0
2018-05-04T00:19:52.478Z,0
2018-05-04T00:20:52.778Z,0
2018-05-04T00:21:52.781Z,0
2018-05-04T00:22:53.096Z,0
2018-05-04T00:23:53.118Z,0
2018-05-04T00:24:53.147Z,0
2018-05-04T00:25:52.880Z,0
2018-05-04T00:26:52.862Z,0
2018-05-04T00:27:53.159Z,0
2018-05-04T00:28:52.621Z,0
2018-05-04T00:29:53.218Z,0
2018-05-04T00:30:52.955Z,0
2018-05-04T00:31:53.278Z,0
2018-05-04T00:32:53.297Z,0
2018-05-04T00:33:53.044Z,0
2018-05-04T00:34:53.348Z,0
2018-05-04T00:35:52.805Z,0
2018-05-04T00:36:52.815Z,0
2018-05-04T00:37:53.406Z,0
2018-05-04T00:38:53.410Z,0
2018-05-04T00:39:53.423Z,0
2018-05-04T00:40:53.457Z,0
2018-05-04T00:41:53.483Z,0
2018-05-04T00:42:53.554Z,0
2018-05-04T00:43:53.573Z,0
2018-05-04T00:44:53.254Z,0
2018-05-04T00:45:53.573Z,0
2018-05-04T00:46:53.290Z,0
2018-05-04T00:47:53.601Z,0
2018-05-04T00:48:53.338Z,0
2018-05-04T00:49:53.064Z,0
2018-05-04T00:50:53.375Z,0
2018-05-04T00:51:53.403Z,0
2018-05-04T00:52:53.480Z,0
2018-05-04T00:53:53.151Z,0
2018-05-04T00:54:53.733Z,0
2018-05-04T00:55:53.494Z,0
2018-05-04T00:56:53.515Z,0
2018-05-04T00:57:53.827Z,0
2018-05-04T00:58:53.253Z,0
2018-05-04T00:59:53.528Z,0
2018-05-04T01:00:53.576Z,0
2018-05-04T01:01:53.566Z,0
2018-05-04T01:02:53.655Z,0
2018-05-04T01:03:53.373Z,0
2018-05-04T01:04:53.659Z,0
2018-05-04T01:05:53.379Z,0
2018-05-04T01:06:53.972Z,0
2018-05-04T01:07:53.719Z,0
2018-05-04T01:08:54.002Z,0
2018-05-04T01:09:53.479Z,0
2018-05-04T01:10:54.082Z,0
2018-05-04T01:11:53.806Z,0
2018-05-04T01:12:54.084Z,0
2018-05-04T01:13:54.124Z,0
2018-05-04T01:14:54.149Z,0
2018-05-04T01:15:53.876Z,0
2018-05-04T01:16:54.181Z,0
2018-05-04T01:17:54.177Z,0
2018-05-04T01:18:54.187Z,0
2018-05-04T01:19:53.977Z,0
2018-05-04T01:20:54.244Z,0
2018-05-04T01:21:54.271Z,0
2018-05-04T01:22:54.298Z,0
2018-05-04T01:23:54.032Z,0
2018-05-04T01:24:54.065Z,0
2018-05-04T01:25:54.352Z,0
2018-05-04T01:26:54.371Z,0
2018-05-04T01:27:54.444Z,0
2018-05-04T01:28:54.154Z,0
2018-05-04T01:29:54.134Z,0
2018-05-04T01:30:54.187Z,0
2018-05-04T01:31:54.461Z,0
2018-05-04T01:32:54.545Z,0
2018-05-04T01:33:54.514Z,0
2018-05-04T01:34:54.523Z,0
2018-05-04T01:35:54.525Z,0
2018-05-04T01:36:54.270Z,0
2018-05-04T01:37:54.339Z,0
2018-05-04T01:38:54.582Z,0
2018-05-04T01:39:54.373Z,0
2018-05-04T01:40:54.676Z,0
2018-05-04T01:41:54.380Z,0
2018-05-04T01:42:53.851Z,0
2018-05-04T01:43:54.438Z,0
2018-05-04T01:44:54.144Z,0
2018-05-04T01:45:54.749Z,0
2018-05-04T01:46:54.483Z,0
2018-05-04T01:47:54.508Z,0
2018-05-04T01:48:54.825Z,0
2018-05-04T01:49:54.523Z,0
2018-05-04T01:50:54.858Z,0
2018-05-04T01:51:54.872Z,0
2018-05-04T01:52:54.872Z,0
2018-05-04T01:53:54.912Z,0
2018-05-04T01:54:54.653Z,0
2018-05-04T01:55:54.964Z,0
2018-05-04T01:56:54.704Z,0
2018-05-04T01:57:54.445Z,0
2018-05-04T01:58:54.758Z,0
2018-05-04T01:59:55.034Z,0
2018-05-04T02:00:55.034Z,0
2018-05-04T02:01:54.232Z,0
2018-05-04T02:02:54.779Z,0
2018-05-04T02:03:55.147Z,0
2018-05-04T02:04:55.142Z,0
2018-05-04T02:05:55.172Z,0
2018-05-04T02:06:55.194Z,0
2018-05-04T02:07:55.157Z,0
2018-05-04T02:08:55.197Z,0
2018-05-04T02:09:54.680Z,0
2018-05-04T02:10:55.244Z,0
2018-05-04T02:11:55.239Z,0
2018-05-04T02:12:54.447Z,0
2018-05-04T02:13:55.024Z,0
2018-05-04T02:14:55.335Z,0
2018-05-04T02:15:55.057Z,0
2018-05-04T02:16:55.078Z,0
2018-05-04T02:17:55.368Z,0
2018-05-04T02:18:55.113Z,0
2018-05-04T02:19:55.140Z,0
2018-05-04T02:20:55.171Z,0
2018-05-04T02:21:55.469Z,0
2018-05-04T02:22:55.452Z,0
2018-05-04T02:23:55.212Z,0
2018-05-04T02:24:55.519Z,0
2018-05-04T02:25:55.530Z,0
2018-05-04T02:26:55.262Z,0
2018-05-04T02:27:54.731Z,0
2018-05-04T02:28:55.325Z,0
2018-05-04T02:29:55.619Z,0
2018-05-04T02:30:55.643Z,0
2018-05-04T02:31:55.671Z,0
2018-05-04T02:32:55.712Z,0
2018-05-04T02:33:55.435Z,0
2018-05-04T02:34:55.463Z,0
2018-05-04T02:35:55.777Z,0
2018-05-04T02:36:55.735Z,0
2018-05-04T02:37:55.761Z,0
2018-05-04T02:38:55.864Z,0
2018-05-04T02:39:55.802Z,0
2018-05-04T02:40:55.558Z,0
2018-05-04T02:41:55.861Z,0
2018-05-04T02:42:55.873Z,0
2018-05-04T02:43:55.900Z,0
2018-05-04T02:44:55.929Z,0
2018-05-04T02:45:55.377Z,0
2018-05-04T02:46:55.948Z,0
2018-05-04T02:47:55.984Z,0
2018-05-04T02:48:56.041Z,0
2018-05-04T02:49:55.995Z,0
2018-05-04T02:50:55.765Z,0
2018-05-04T02:51:55.756Z,0
2018-05-04T02:52:55.762Z,0
2018-05-04T02:53:55.820Z,0
2018-05-04T02:54:55.846Z,0
2018-05-04T02:55:56.139Z,0
2018-05-04T02:56:56.158Z,0
2018-05-04T02:57:56.167Z,0
2018-05-04T02:58:55.919Z,0
2018-05-04T02:59:56.214Z,0
2018-05-04T03:00:56.248Z,0
2018-05-04T03:01:56.238Z,0
2018-05-04T03:02:56.278Z,0
2018-05-04T03:03:56.018Z,0
2018-05-04T03:04:56.295Z,0
2018-05-04T03:05:56.028Z,0
2018-05-04T03:06:56.342Z,0
2018-05-04T03:07:56.364Z,0
2018-05-04T03:08:56.431Z,0
2018-05-04T03:09:56.131Z,0
2018-05-04T03:10:56.150Z,0
2018-05-04T03:11:56.928Z,0
2018-05-04T03:12:56.463Z,0
2018-05-04T03:13:56.536Z,0
2018-05-04T03:14:56.231Z,0
2018-05-04T03:15:56.512Z,0
2018-05-04T03:16:56.687Z,0
2018-05-04T03:17:56.559Z,0
2018-05-04T03:18:56.271Z,0
2018-05-04T03:19:56.614Z,4
2018-05-04T03:20:56.317Z,4
2018-05-04T03:21:56.795Z,4
2018-05-04T03:22:56.721Z,0
2018-05-04T03:23:56.383Z,0
2018-05-04T03:24:56.669Z,4
2018-05-04T03:25:56.895Z,4
2018-05-04T03:26:56.428Z,4
2018-05-04T03:27:56.462Z,4
2018-05-04T03:28:56.783Z,4
2018-05-04T03:29:56.800Z,8
2018-05-04T03:30:56.809Z,4
2018-05-04T03:31:56.834Z,8
2018-05-04T03:32:56.557Z,8
2018-05-04T03:33:56.894Z,8
2018-05-04T03:34:56.593Z,8
2018-05-04T03:35:56.625Z,12
2018-05-04T03:36:56.888Z,12
2018-05-04T03:37:56.926Z,12
2018-05-04T03:38:56.717Z,16
2018-05-04T03:39:56.987Z,16
2018-05-04T03:40:56.992Z,16
2018-05-04T03:41:57.000Z,20
2018-05-04T03:42:57.277Z,20
2018-05-04T03:43:56.764Z,20
2018-05-04T03:44:57.074Z,24
2018-05-04T03:45:57.081Z,28
2018-05-04T03:46:57.116Z,28
2018-05-04T03:47:56.862Z,32
2018-05-04T03:48:57.145Z,32
2018-05-04T03:49:56.909Z,32
2018-05-04T03:50:57.163Z,36
2018-05-04T03:51:56.955Z,36
2018-05-04T03:52:57.207Z,44
2018-05-04T03:53:56.992Z,44
2018-05-04T03:54:57.268Z,48
2018-05-04T03:55:56.747Z,56
2018-05-04T03:56:57.308Z,56
2018-05-04T03:57:57.348Z,60
2018-05-04T03:58:57.370Z,60
2018-05-04T03:59:57.363Z,60
2018-05-04T04:00:57.456Z,68
2018-05-04T04:01:57.401Z,72
2018-05-04T04:02:57.161Z,76
2018-05-04T04:03:57.484Z,80
2018-05-04T04:04:57.469Z,76
2018-05-04T04:05:56.917Z,80
2018-05-04T04:06:57.494Z,80
2018-05-04T04:07:57.584Z,80
2018-05-04T04:08:57.266Z,92
2018-05-04T04:09:57.281Z,96
2018-05-04T04:10:57.292Z,104
2018-05-04T04:11:57.321Z,112
2018-05-04T04:12:57.631Z,112
2018-05-04T04:13:57.466Z,120
2018-05-04T04:14:57.372Z,120
2018-05-04T04:15:57.149Z,124
2018-05-04T04:16:57.430Z,128
2018-05-04T04:17:57.509Z,136
2018-05-04T04:18:57.716Z,148
2018-05-04T04:19:57.493Z,160
2018-05-04T04:20:57.497Z,160
2018-05-04T04:21:57.216Z,164
2018-05-04T04:22:57.814Z,164
2018-05-04T04:23:57.841Z,164
2018-05-04T04:24:57.822Z,168
2018-05-04T04:25:57.878Z,184
2018-05-04T04:26:57.335Z,196
2018-05-04T04:27:57.625Z,204
2018-05-04T04:28:57.638Z,204
2018-05-04T04:29:57.371Z,204
2018-05-04T04:30:57.686Z,208
2018-05-04T04:31:57.692Z,212
2018-05-04T04:32:57.716Z,220
2018-05-04T04:33:57.736Z,232
2018-05-04T04:34:57.742Z,240
2018-05-04T04:35:58.082Z,248
2018-05-04T04:36:57.822Z,248
2018-05-04T04:37:57.542Z,252
2018-05-04T04:38:58.108Z,256
2018-05-04T04:39:58.177Z,264
2018-05-04T04:40:57.623Z,272
2018-05-04T04:41:57.605Z,280
2018-05-04T04:42:58.176Z,288
2018-05-04T04:43:58.276Z,308
2018-05-04T04:44:58.220Z,324
2018-05-04T04:45:58.250Z,340
2018-05-04T04:46:58.300Z,352
2018-05-04T04:47:58.310Z,360
2018-05-04T04:48:58.294Z,368
2018-05-04T04:49:57.767Z,368
2018-05-04T04:50:57.546Z,372
2018-05-04T04:51:58.366Z,380
2018-05-04T04:52:58.091Z,392
2018-05-04T04:53:58.176Z,408
2018-05-04T04:54:58.412Z,420
2018-05-04T04:55:58.159Z,428
2018-05-04T04:56:58.484Z,432
2018-05-04T04:57:58.518Z,440
2018-05-04T04:58:58.226Z,440
2018-05-04T04:59:58.523Z,436
2018-05-04T05:00:58.280Z,444
2018-05-04T05:01:58.601Z,448
2018-05-04T05:02:58.580Z,436
2018-05-04T05:03:58.655Z,436
2018-05-04T05:04:58.052Z,440
2018-05-04T05:05:58.362Z,452
2018-05-04T05:06:58.644Z,456
2018-05-04T05:07:58.679Z,460
2018-05-04T05:08:58.492Z,472
2018-05-04T05:09:58.712Z,480
2018-05-04T05:10:58.728Z,496
2018-05-04T05:11:58.748Z,508
2018-05-04T05:12:58.202Z,532
2018-05-04T05:13:58.817Z,552
2018-05-04T05:14:58.603Z,560
2018-05-04T05:15:58.570Z,568
2018-05-04T05:16:58.850Z,584
2018-05-04T05:17:58.880Z,596
2018-05-04T05:18:58.962Z,608
2018-05-04T05:19:58.920Z,620
2018-05-04T05:20:58.653Z,628
2018-05-04T05:21:58.395Z,628
2018-05-04T05:22:59.055Z,636
2018-05-04T05:23:59.030Z,644
2018-05-04T05:24:59.013Z,652
2018-05-04T05:25:59.018Z,664
2018-05-04T05:26:59.036Z,672
2018-05-04T05:27:58.772Z,684
2018-05-04T05:28:59.140Z,696
2018-05-04T05:29:59.109Z,704
2018-05-04T05:30:59.149Z,716
2018-05-04T05:31:59.123Z,732
2018-05-04T05:32:59.151Z,752
2018-05-04T05:33:59.238Z,760
2018-05-04T05:34:59.206Z,764
2018-05-04T05:35:58.929Z,768
2018-05-04T05:36:59.236Z,776
2018-05-04T05:37:59.253Z,788
2018-05-04T05:38:59.328Z,792
2018-05-04T05:39:58.718Z,796
2018-05-04T05:40:59.321Z,796
2018-05-04T05:41:59.355Z,800
2018-05-04T05:42:59.366Z,808
2018-05-04T05:43:59.142Z,812
2018-05-04T05:44:59.109Z,804
2018-05-04T05:45:59.126Z,800
2018-05-04T05:46:59.445Z,812
2018-05-04T05:47:59.449Z,840
2018-05-04T05:48:59.474Z,860
2018-05-04T05:49:59.514Z,864
2018-05-04T05:50:59.238Z,844
2018-05-04T05:51:59.818Z,836
2018-05-04T05:52:59.548Z,852
2018-05-04T05:53:59.323Z,880
2018-05-04T05:54:59.618Z,900
2018-05-04T05:55:59.331Z,928
2018-05-04T05:56:59.410Z,940
2018-05-04T05:57:59.676Z,960
2018-05-04T05:58:59.079Z,976
2018-05-04T05:59:59.106Z,984
2018-05-04T06:00:59.717Z,992
2018-05-04T06:01:59.730Z,1012
2018-05-04T06:02:59.749Z,1036
2018-05-04T06:03:59.569Z,1056
2018-05-04T06:04:59.792Z,1072
2018-05-04T06:05:59.526Z,1080
2018-05-04T06:06:59.805Z,1096
2018-05-04T06:07:59.548Z,1100
2018-05-04T06:08:59.608Z,1108
2018-05-04T06:09:59.879Z,1116
2018-05-04T06:10:59.604Z,1136
2018-05-04T06:11:59.333Z,1156
2018-05-04T06:12:59.660Z,1160
2018-05-04T06:14:00.017Z,1176
2018-05-04T06:15:00.084Z,1200
2018-05-04T06:16:00.027Z,1224
2018-05-04T06:17:00.024Z,1232
2018-05-04T06:17:59.476Z,1244
2018-05-04T06:19:00.096Z,1260
2018-05-04T06:20:00.066Z,1280
2018-05-04T06:21:00.112Z,1280
2018-05-04T06:21:59.610Z,1260
2018-05-04T06:22:59.847Z,1248
2018-05-04T06:24:00.137Z,1244
2018-05-04T06:25:00.194Z,1216
2018-05-04T06:26:00.199Z,1176
2018-05-04T06:27:00.201Z,1152
2018-05-04T06:28:00.252Z,1188
2018-05-04T06:29:00.401Z,1244
2018-05-04T06:29:59.695Z,1280
2018-05-04T06:31:00.300Z,1272
2018-05-04T06:32:00.021Z,1224
2018-05-04T06:33:00.033Z,1136
2018-05-04T06:33:59.825Z,1020
2018-05-04T06:35:00.359Z,936
2018-05-04T06:36:00.360Z,888
2018-05-04T06:37:00.121Z,880
2018-05-04T06:38:00.429Z,908
2018-05-04T06:38:59.901Z,952
2018-05-04T06:40:00.457Z,992
2018-05-04T06:41:00.503Z,1020
2018-05-04T06:41:59.948Z,1040
2018-05-04T06:43:00.541Z,1040
2018-05-04T06:44:00.531Z,988
2018-05-04T06:45:00.493Z,892
2018-05-04T06:46:00.680Z,796
2018-05-04T06:47:00.337Z,736
2018-05-04T06:48:00.637Z,700
2018-05-04T06:49:00.346Z,696
2018-05-04T06:50:00.674Z,732
2018-05-04T06:51:00.420Z,756
2018-05-04T06:52:00.140Z,708
2018-05-04T06:53:00.717Z,624
2018-05-04T06:54:00.458Z,576
2018-05-04T06:55:00.493Z,560
2018-05-04T06:56:00.504Z,560
2018-05-04T06:57:00.827Z,572
2018-05-04T06:58:00.854Z,592
2018-05-04T06:59:00.838Z,608
2018-05-04T07:00:00.892Z,600
2018-05-04T07:01:00.593Z,604
2018-05-04T07:02:00.640Z,624
2018-05-04T07:03:00.665Z,684
2018-05-04T07:04:00.963Z,740
2018-05-04T07:05:00.984Z,776
2018-05-04T07:06:00.442Z,780
2018-05-04T07:07:00.712Z,752
2018-05-04T07:08:01.010Z,716
2018-05-04T07:09:00.682Z,700
2018-05-04T07:10:01.081Z,712
2018-05-04T07:11:00.791Z,736
2018-05-04T07:12:00.843Z,736
2018-05-04T07:13:00.855Z,720
2018-05-04T07:14:01.147Z,712
2018-05-04T07:15:01.294Z,708
2018-05-04T07:16:01.187Z,696
2018-05-04T07:17:00.904Z,676
2018-05-04T07:18:00.953Z,672
2018-05-04T07:19:00.976Z,700
2018-05-04T07:20:01.263Z,756
2018-05-04T07:21:01.281Z,788
2018-05-04T07:22:01.478Z,768
2018-05-04T07:23:01.044Z,748
2018-05-04T07:24:01.078Z,732
2018-05-04T07:25:01.366Z,716
2018-05-04T07:26:01.103Z,736
2018-05-04T07:27:01.417Z,756
2018-05-04T07:28:01.420Z,744
2018-05-04T07:29:01.505Z,716
2018-05-04T07:30:01.464Z,712
2018-05-04T07:31:01.497Z,768
2018-05-04T07:32:01.503Z,828
2018-05-04T07:33:01.524Z,820
2018-05-04T07:34:01.556Z,760
2018-05-04T07:35:01.574Z,744
2018-05-04T07:36:01.565Z,736
2018-05-04T07:37:01.606Z,720
2018-05-04T07:38:01.622Z,708
2018-05-04T07:39:01.675Z,696
2018-05-04T07:40:01.664Z,696
2018-05-04T07:41:01.737Z,700
2018-05-04T07:42:01.154Z,716
2018-05-04T07:43:01.743Z,736
2018-05-04T07:44:01.473Z,704
2018-05-04T07:45:01.500Z,664
2018-05-04T07:46:01.817Z,628
2018-05-04T07:47:01.242Z,612
2018-05-04T07:48:01.548Z,604
2018-05-04T07:49:01.858Z,600
2018-05-04T07:50:01.589Z,608
2018-05-04T07:51:01.344Z,620
2018-05-04T07:52:01.625Z,628
2018-05-04T07:53:01.641Z,624
2018-05-04T07:54:01.959Z,624
2018-05-04T07:55:01.409Z,632
2018-05-04T07:56:02.005Z,632
2018-05-04T07:57:01.474Z,636
2018-05-04T07:58:02.021Z,644
2018-05-04T07:59:02.071Z,660
2018-05-04T08:00:02.090Z,672
2018-05-04T08:01:02.096Z,680
2018-05-04T08:02:02.113Z,684
2018-05-04T08:03:02.037Z,696
2018-05-04T08:04:01.910Z,724
2018-05-04T08:05:02.183Z,788
2018-05-04T08:06:01.934Z,852
2018-05-04T08:07:01.939Z,912
2018-05-04T08:08:02.256Z,932
2018-05-04T08:09:01.996Z,876
2018-05-04T08:10:02.175Z,840
2018-05-04T08:11:02.301Z,888
2018-05-04T08:12:02.044Z,936
2018-05-04T08:13:02.360Z,924
2018-05-04T08:14:02.102Z,900
2018-05-04T08:15:02.455Z,908
2018-05-04T08:16:02.131Z,932
2018-05-04T08:17:02.225Z,916
2018-05-04T08:18:02.179Z,868
2018-05-04T08:19:01.914Z,824
2018-05-04T08:20:02.600Z,796
2018-05-04T08:21:02.524Z,796
2018-05-04T08:22:02.570Z,820
2018-05-04T08:23:02.573Z,844
2018-05-04T08:24:02.294Z,852
2018-05-04T08:25:02.103Z,860
2018-05-04T08:26:02.626Z,852
2018-05-04T08:27:02.656Z,828
2018-05-04T08:28:02.685Z,832
2018-05-04T08:29:02.415Z,852
2018-05-04T08:30:02.778Z,880
2018-05-04T08:31:02.462Z,868
2018-05-04T08:32:02.487Z,868
2018-05-04T08:33:02.478Z,944
2018-05-04T08:34:02.503Z,976
2018-05-04T08:35:02.865Z,932
2018-05-04T08:36:02.848Z,892
2018-05-04T08:37:02.593Z,880
2018-05-04T08:38:02.872Z,892
2018-05-04T08:39:02.609Z,912
2018-05-04T08:40:02.695Z,908
2018-05-04T08:41:02.376Z,900
2018-05-04T08:42:02.963Z,904
2018-05-04T08:43:03.376Z,908
2018-05-04T08:44:02.744Z,920
2018-05-04T08:45:03.049Z,936
2018-05-04T08:46:02.804Z,948
2018-05-04T08:47:03.062Z,964
2018-05-04T08:48:03.116Z,972
2018-05-04T08:49:02.857Z,968
2018-05-04T08:50:02.592Z,960
2018-05-04T08:51:03.113Z,960
2018-05-04T08:52:02.905Z,972
2018-05-04T08:53:03.211Z,992
2018-05-04T08:54:03.245Z,1012
2018-05-04T08:55:03.297Z,1024
2018-05-04T08:56:02.998Z,1032
2018-05-04T08:57:02.796Z,1044
2018-05-04T08:58:03.326Z,1044
2018-05-04T08:59:03.070Z,1044
2018-05-04T09:00:02.788Z,1068
2018-05-04T09:01:03.090Z,1112
2018-05-04T09:02:03.399Z,1132
2018-05-04T09:03:03.149Z,1112
2018-05-04T09:04:03.479Z,1092
2018-05-04T09:05:03.436Z,1088
2018-05-04T09:06:03.501Z,1096
2018-05-04T09:07:03.530Z,1108
2018-05-04T09:08:03.257Z,1112
2018-05-04T09:09:03.553Z,1112
2018-05-04T09:10:03.592Z,1120
2018-05-04T09:11:03.303Z,1132
2018-05-04T09:12:03.061Z,1148
2018-05-04T09:13:03.647Z,1168
2018-05-04T09:14:03.669Z,1172
2018-05-04T09:15:03.509Z,1176
2018-05-04T09:16:03.439Z,1168
2018-05-04T09:17:03.422Z,1164
2018-05-04T09:18:03.783Z,1168
2018-05-04T09:19:03.484Z,1176
2018-05-04T09:20:04.034Z,1188
2018-05-04T09:21:03.529Z,1200
2018-05-04T09:22:03.289Z,1212
2018-05-04T09:23:03.864Z,1220
2018-05-04T09:24:03.597Z,1228
2018-05-04T09:25:03.386Z,1236
2018-05-04T09:26:03.647Z,1240
2018-05-04T09:27:03.932Z,1252
2018-05-04T09:28:03.966Z,1264
2018-05-04T09:29:03.719Z,1284
2018-05-04T09:30:04.093Z,1296
2018-05-04T09:31:04.239Z,1296
2018-05-04T09:32:04.048Z,1312
2018-05-04T09:33:03.819Z,1320
2018-05-04T09:34:03.818Z,1320
2018-05-04T09:35:03.853Z,1292
2018-05-04T09:36:03.600Z,1112
2018-05-04T09:37:04.226Z,1036
2018-05-04T09:38:03.936Z,1036
2018-05-04T09:39:04.216Z,1048
2018-05-04T09:40:03.710Z,1048
2018-05-04T09:41:03.763Z,1040
2018-05-04T09:42:04.308Z,1044
2018-05-04T09:43:04.292Z,1052
2018-05-04T09:44:04.053Z,1060
2018-05-04T09:45:04.376Z,1072
2018-05-04T09:46:04.106Z,1076
2018-05-04T09:47:04.147Z,1092
2018-05-04T09:48:04.163Z,1132
2018-05-04T09:49:04.671Z,1220
2018-05-04T09:50:04.197Z,1340
2018-05-04T09:51:04.510Z,1500
2018-05-04T09:52:03.956Z,1672
2018-05-04T09:53:04.271Z,1828
2018-05-04T09:54:04.591Z,1976
2018-05-04T09:55:04.574Z,2120
2018-05-04T09:56:04.650Z,2272
2018-05-04T09:57:04.074Z,2404
2018-05-04T09:58:04.641Z,2492
2018-05-04T09:59:04.683Z,2576
2018-05-04T10:00:04.727Z,2708
2018-05-04T10:01:04.758Z,2860
2018-05-04T10:02:04.769Z,2960
2018-05-04T10:03:04.792Z,3024
2018-05-04T10:04:04.800Z,3072
2018-05-04T10:05:04.814Z,3092
2018-05-04T10:06:04.615Z,3092
2018-05-04T10:07:04.688Z,3108
2018-05-04T10:08:04.631Z,3172
2018-05-04T10:09:04.980Z,3144
2018-05-04T10:10:04.382Z,3056
2018-05-04T10:11:05.024Z,2992
2018-05-04T10:12:05.006Z,2996
2018-05-04T10:13:05.029Z,3104
2018-05-04T10:14:04.773Z,3268
2018-05-04T10:15:04.777Z,3428
2018-05-04T10:16:05.297Z,3496
2018-05-04T10:17:04.843Z,3492
2018-05-04T10:18:04.881Z,3500
2018-05-04T10:19:05.155Z,3536
2018-05-04T10:20:05.210Z,3608
2018-05-04T10:21:04.943Z,3696
2018-05-04T10:22:04.404Z,3696
2018-05-04T10:23:05.003Z,3524
2018-05-04T10:24:05.024Z,3292
2018-05-04T10:25:05.337Z,3156
2018-05-04T10:26:05.325Z,3196
2018-05-04T10:27:05.111Z,3416
2018-05-04T10:28:05.174Z,3692
2018-05-04T10:29:05.413Z,3828
2018-05-04T10:30:05.437Z,3772
2018-05-04T10:31:05.454Z,3608
2018-05-04T10:32:05.489Z,3476
2018-05-04T10:33:05.230Z,3460
2018-05-04T10:34:04.965Z,3572
2018-05-04T10:35:05.273Z,3680
2018-05-04T10:36:05.571Z,3672
2018-05-04T10:37:05.047Z,3588
2018-05-04T10:38:05.348Z,3500
2018-05-04T10:39:05.556Z,3416
2018-05-04T10:40:05.686Z,3364
2018-05-04T10:41:05.449Z,3408
2018-05-04T10:42:05.453Z,3544
2018-05-04T10:43:05.471Z,3660
2018-05-04T10:44:05.527Z,3640
2018-05-04T10:45:05.586Z,3536
2018-05-04T10:46:05.273Z,3508
2018-05-04T10:47:05.845Z,3608
2018-05-04T10:48:05.855Z,3752
2018-05-04T10:49:05.613Z,3820
2018-05-04T10:50:05.930Z,3768
2018-05-04T10:51:05.390Z,3700
2018-05-04T10:52:05.705Z,3676
2018-05-04T10:53:05.722Z,3752
2018-05-04T10:54:05.198Z,3888
2018-05-04T10:55:06.031Z,3992
2018-05-04T10:56:06.175Z,4084
2018-05-04T10:57:06.093Z,4092
2018-05-04T10:58:05.337Z,4000
2018-05-04T10:59:06.156Z,3848
2018-05-04T11:00:06.178Z,3724
2018-05-04T11:01:05.966Z,3644
2018-05-04T11:02:06.214Z,3592
2018-05-04T11:03:05.977Z,3524
2018-05-04T11:04:06.063Z,3452
2018-05-04T11:05:06.301Z,3432
2018-05-04T11:06:06.336Z,3504
2018-05-04T11:07:06.335Z,3656
2018-05-04T11:08:06.128Z,3760
2018-05-04T11:09:06.414Z,3744
2018-05-04T11:10:06.429Z,3660
2018-05-04T11:11:06.559Z,3604
2018-05-04T11:12:06.344Z,3576
2018-05-04T11:13:06.194Z,3496
2018-05-04T11:14:05.686Z,3340
2018-05-04T11:15:06.544Z,3188
2018-05-04T11:16:06.613Z,3176
2018-05-04T11:17:06.613Z,3296
2018-05-04T11:18:06.326Z,3484
2018-05-04T11:19:06.658Z,3572
2018-05-04T11:20:06.396Z,3504
2018-05-04T11:21:06.753Z,3384
2018-05-04T11:22:06.728Z,3328
2018-05-04T11:23:06.745Z,3316
2018-05-04T11:24:06.468Z,3292
2018-05-04T11:25:06.530Z,3260
2018-05-04T11:26:06.840Z,3268
2018-05-04T11:27:06.837Z,3332
2018-05-04T11:28:06.600Z,3444
2018-05-04T11:29:06.626Z,3512
2018-05-04T11:30:06.642Z,3428
2018-05-04T11:31:06.424Z,3240
2018-05-04T11:32:07.110Z,3060
2018-05-04T11:33:06.696Z,3000
2018-05-04T11:34:07.019Z,3048
2018-05-04T11:35:06.777Z,3152
2018-05-04T11:36:06.823Z,3220
2018-05-04T11:37:07.107Z,3268
2018-05-04T11:38:06.854Z,3272
2018-05-04T11:39:06.971Z,3208
2018-05-04T11:40:06.596Z,3100
2018-05-04T11:41:06.636Z,3056
2018-05-04T11:42:06.968Z,3060
2018-05-04T11:43:07.282Z,3132
2018-05-04T11:44:06.986Z,3184
2018-05-04T11:45:07.010Z,3228
2018-05-04T11:46:07.069Z,3328
2018-05-04T11:47:07.365Z,3508
2018-05-04T11:48:07.096Z,3648
2018-05-04T11:49:07.139Z,3660
2018-05-04T11:50:06.886Z,3588
2018-05-04T11:51:07.188Z,3524
2018-05-04T11:52:07.494Z,3488
2018-05-04T11:53:07.619Z,3488
2018-05-04T11:54:07.080Z,3456
2018-05-04T11:55:07.750Z,3448
2018-05-04T11:56:07.097Z,3536
2018-05-04T11:57:07.696Z,3700
2018-05-04T11:58:07.753Z,3732
2018-05-04T11:59:07.443Z,3592
2018-05-04T12:00:07.124Z,3420
2018-05-04T12:01:07.171Z,3252
2018-05-04T12:02:07.453Z,3136
2018-05-04T12:03:07.204Z,3112
2018-05-04T12:04:07.780Z,3212
2018-05-04T12:05:07.559Z,3296
2018-05-04T12:06:07.654Z,3280
2018-05-04T12:07:07.877Z,3200
2018-05-04T12:08:07.882Z,3148
2018-05-04T12:09:07.907Z,3240
2018-05-04T12:10:07.674Z,3484
2018-05-04T12:11:07.947Z,3728
2018-05-04T12:12:07.713Z,3848
2018-05-04T12:13:07.994Z,3828
2018-05-04T12:14:08.056Z,3692
2018-05-04T12:15:08.086Z,3480
2018-05-04T12:16:07.824Z,3308
2018-05-04T12:17:08.502Z,3220
2018-05-04T12:18:07.886Z,3240
2018-05-04T12:19:07.906Z,3356
2018-05-04T12:20:07.641Z,3532
2018-05-04T12:21:07.654Z,3664
2018-05-04T12:22:07.981Z,3676
2018-05-04T12:23:08.000Z,3660
2018-05-04T12:24:08.037Z,3684
2018-05-04T12:25:08.055Z,3732
2018-05-04T12:26:08.291Z,3744
2018-05-04T12:27:08.107Z,3704
2018-05-04T12:28:08.409Z,3664
2018-05-04T12:29:08.461Z,3644
2018-05-04T12:30:08.487Z,3688
2018-05-04T12:31:08.473Z,3772
2018-05-04T12:32:08.438Z,3756
2018-05-04T12:33:08.248Z,3628
2018-05-04T12:34:08.585Z,3528
2018-05-04T12:35:08.308Z,3532
2018-05-04T12:36:08.078Z,3628
2018-05-04T12:37:08.834Z,3844
2018-05-04T12:38:08.396Z,4032
2018-05-04T12:39:08.676Z,4044
2018-05-04T12:40:08.718Z,3928
2018-05-04T12:41:08.172Z,3860
2018-05-04T12:42:08.769Z,3848
2018-05-04T12:43:08.841Z,3876
2018-05-04T12:44:08.849Z,3932
2018-05-04T12:45:08.826Z,3956
2018-05-04T12:46:08.597Z,3952
2018-05-04T12:47:08.887Z,3904
2018-05-04T12:48:08.942Z,3840
2018-05-04T12:49:09.009Z,3804
2018-05-04T12:50:08.705Z,3796
2018-05-04T12:51:08.457Z,3820
2018-05-04T12:52:08.733Z,3856
2018-05-04T12:53:08.761Z,3840
2018-05-04T12:54:08.797Z,3772
2018-05-04T12:55:08.833Z,3620
2018-05-04T12:56:08.850Z,3492
2018-05-04T12:57:08.924Z,3448
2018-05-04T12:58:08.912Z,3516
2018-05-04T12:59:08.942Z,3620
2018-05-04T13:00:08.663Z,3628
2018-05-04T13:01:09.276Z,3524
2018-05-04T13:02:09.308Z,3408
2018-05-04T13:03:09.332Z,3352
2018-05-04T13:04:09.042Z,3324
2018-05-04T13:05:09.112Z,3308
2018-05-04T13:06:08.847Z,3324
2018-05-04T13:07:09.121Z,3344
2018-05-04T13:08:09.152Z,3284
2018-05-04T13:09:09.188Z,3152
2018-05-04T13:10:09.238Z,3028
2018-05-04T13:11:09.252Z,2988
2018-05-04T13:12:09.543Z,3060
2018-05-04T13:13:09.595Z,3192
2018-05-04T13:14:09.603Z,3276
2018-05-04T13:15:09.324Z,3244
2018-05-04T13:16:09.395Z,3132
2018-05-04T13:17:09.666Z,3032
2018-05-04T13:18:09.421Z,3000
2018-05-04T13:19:09.434Z,3028
2018-05-04T13:20:09.213Z,3040
2018-05-04T13:21:09.517Z,3020
2018-05-04T13:22:09.802Z,2964
2018-05-04T13:23:09.604Z,2924
2018-05-04T13:24:09.574Z,2904
2018-05-04T13:25:09.377Z,2904
2018-05-04T13:26:09.356Z,2936
2018-05-04T13:27:09.686Z,2960
2018-05-04T13:28:09.128Z,2964
2018-05-04T13:29:10.002Z,2896
2018-05-04T13:30:09.444Z,2776
2018-05-04T13:31:10.085Z,2680
2018-05-04T13:32:09.838Z,2624
2018-05-04T13:33:10.124Z,2604
2018-05-04T13:34:10.167Z,2588
2018-05-04T13:35:09.867Z,2564
2018-05-04T13:36:10.168Z,2564
2018-05-04T13:37:09.936Z,2612
2018-05-04T13:38:09.939Z,2724
2018-05-04T13:39:10.255Z,2892
2018-05-04T13:40:10.309Z,2980
2018-05-04T13:41:10.032Z,2932
2018-05-04T13:42:10.099Z,2776
2018-05-04T13:43:09.777Z,2648
2018-05-04T13:44:09.828Z,2596
2018-05-04T13:45:10.407Z,2580
2018-05-04T13:46:09.872Z,2544
2018-05-04T13:47:10.244Z,2516
2018-05-04T13:48:10.198Z,2544
2018-05-04T13:49:10.259Z,2628
2018-05-04T13:50:09.993Z,2744
2018-05-04T13:51:10.295Z,2808